Time;durP1;ratioP1;P1;durP2;ratioP2;P2;SDS_P1;SDS_P2;PMS_P1;PMS_P2;Temp;Humidity;BMP_temperature;BMP_pressure;BME280_temperature;BME280_humidity;BME280_pressure;Samples;Min_cycle;Max_cycle;Signal;HPM_P1;HPM_P2
2022/01/21 00:01:09;;;;;;;112.05;65.15;;;5.50;89.00;;;;;;5041962;28;20095;-76
2022/01/21 00:03:36;;;;;;;129.55;77.40;;;5.40;88.80;;;;;;5039993;28;20037;-77
2022/01/21 00:06:06;;;;;;;94.40;58.35;;;5.30;88.60;;;;;;5039361;28;20029;-77
2022/01/21 00:08:32;;;;;;;105.43;63.00;;;5.40;88.90;;;;;;5031762;28;20041;-77
2022/01/21 00:10:58;;;;;;;100.63;58.88;;;5.40;88.40;;;;;;5023288;28;20029;-77
2022/01/21 00:13:33;;;;;;;119.00;72.65;;;5.40;88.10;;;;;;5029978;28;20373;-76
2022/01/21 00:16:11;;;;;;;122.25;72.45;;;5.40;87.90;;;;;;5028851;28;20087;-77
2022/01/21 00:18:39;;;;;;;100.00;58.83;;;5.30;88.80;;;;;;5037494;28;20037;-77
2022/01/21 00:32:06;;;;;;;103.50;61.28;;;4.90;89.50;;;;;;5043312;28;20039;-77
2022/01/21 00:34:32;;;;;;;128.45;76.57;;;4.90;89.40;;;;;;5040108;28;20120;-77
2022/01/21 00:36:58;;;;;;;96.13;57.92;;;4.80;89.10;;;;;;5050618;28;20112;-77
2022/01/21 00:39:28;;;;;;;118.65;69.07;;;4.80;90.20;;;;;;5044185;28;20530;-77
2022/01/21 00:44:22;;;;;;;133.48;81.78;;;4.80;89.20;;;;;;5045218;28;21742;-77
2022/01/21 00:46:48;;;;;;;105.00;61.95;;;4.80;89.00;;;;;;5042053;28;20026;-77
2022/01/21 00:49:15;;;;;;;86.72;53.28;;;4.60;88.50;;;;;;5030122;28;20533;-77
2022/01/21 00:51:41;;;;;;;90.40;56.70;;;4.60;88.70;;;;;;5024620;28;20040;-77
2022/01/21 00:54:07;;;;;;;77.88;48.70;;;4.60;88.20;;;;;;5043005;28;20045;-77
2022/01/21 00:56:32;;;;;;;102.22;63.47;;;4.60;88.00;;;;;;5044211;28;20040;-77
2022/01/21 00:58:58;;;;;;;102.35;61.80;;;4.50;87.90;;;;;;5043849;28;20481;-77
2022/01/21 01:01:24;;;;;;;112.57;70.07;;;4.50;88.00;;;;;;5037377;28;20034;-77
2022/01/21 01:03:50;;;;;;;81.25;53.15;;;4.40;87.60;;;;;;5029603;28;20041;-77
2022/01/21 01:06:15;;;;;;;78.93;53.25;;;4.30;87.50;;;;;;5044060;28;20410;-77
2022/01/21 01:08:42;;;;;;;59.97;40.90;;;4.10;87.60;;;;;;5046328;28;20469;-77
2022/01/21 01:21:45;;;;;;;81.20;54.63;;;3.90;87.80;;;;;;5043313;28;20069;-77
2022/01/21 01:29:24;;;;;;;76.25;50.90;;;3.60;88.60;;;;;;5037429;28;20060;-77
2022/01/21 01:31:51;;;;;;;61.60;43.22;;;3.50;88.90;;;;;;5045061;28;20033;-76
2022/01/21 01:34:18;;;;;;;69.55;47.80;;;3.60;89.50;;;;;;5026260;28;20136;-76
2022/01/21 01:36:45;;;;;;;73.40;50.53;;;3.50;88.60;;;;;;5040345;28;20465;-76
2022/01/21 01:39:28;;;;;;;61.33;41.78;;;3.60;88.30;;;;;;5029034;28;20067;-76
2022/01/21 01:42:30;;;;;;;90.60;56.75;;;3.60;88.20;;;;;;5023659;28;20502;-76
2022/01/21 01:50:41;;;;;;;74.72;49.20;;;3.60;88.00;;;;;;5017930;28;20045;-77
2022/01/21 01:53:08;;;;;;;83.82;58.35;;;3.70;87.10;;;;;;5036908;28;20061;-77
2022/01/21 01:55:35;;;;;;;73.20;49.88;;;3.60;87.40;;;;;;5042430;28;20080;-77
2022/01/21 01:58:01;;;;;;;66.70;46.03;;;3.50;87.80;;;;;;5043226;28;20041;-78
2022/01/21 02:00:27;;;;;;;56.05;39.17;;;3.60;87.40;;;;;;5036671;28;20052;-77
2022/01/21 02:02:52;;;;;;;56.13;38.67;;;3.70;87.10;;;;;;5026827;28;20083;-77
2022/01/21 02:05:18;;;;;;;59.15;38.47;;;3.90;86.50;;;;;;5044199;28;20106;-78
2022/01/21 02:07:45;;;;;;;72.80;50.83;;;4.00;85.50;;;;;;5040042;28;20536;-78
2022/01/21 02:10:11;;;;;;;78.68;56.88;;;4.00;85.30;;;;;;5041645;28;20041;-78
2022/01/21 02:12:39;;;;;;;68.85;49.30;;;3.80;86.10;;;;;;5046050;28;20536;-78
2022/01/21 02:15:05;;;;;;;66.30;46.08;;;3.70;86.40;;;;;;5042006;28;20048;-77
2022/01/21 02:22:46;;;;;;;69.13;46.78;;;3.50;86.20;;;;;;5035236;28;20055;-77
2022/01/21 02:25:21;;;;;;;82.55;55.75;;;3.40;86.90;;;;;;5028456;28;20416;-77
2022/01/21 02:27:50;;;;;;;63.53;44.58;;;3.20;87.00;;;;;;5041041;28;20103;-77
2022/01/21 02:30:20;;;;;;;75.15;53.45;;;3.30;86.90;;;;;;5041114;28;20113;-77
2022/01/21 02:32:51;;;;;;;80.25;57.33;;;3.40;86.30;;;;;;5041342;28;20052;-77
2022/01/21 02:35:18;;;;;;;67.95;47.80;;;3.10;86.40;;;;;;5044751;28;20108;-77
2022/01/21 02:37:44;;;;;;;68.93;48.22;;;3.00;87.50;;;;;;5032897;28;20044;-77
2022/01/21 02:40:12;;;;;;;63.17;45.10;;;2.90;88.00;;;;;;5041225;28;20092;-77
2022/01/21 02:42:38;;;;;;;78.47;57.20;;;3.00;87.50;;;;;;5022691;28;20068;-77
2022/01/21 02:45:05;;;;;;;82.43;55.22;;;2.90;87.70;;;;;;5046497;28;20064;-77
2022/01/21 02:47:31;;;;;;;72.90;48.58;;;2.90;88.10;;;;;;5040025;28;20485;-77
2022/01/21 02:49:56;;;;;;;83.15;56.78;;;2.90;87.70;;;;;;5039766;28;20428;-76
2022/01/21 02:52:26;;;;;;;83.70;59.50;;;3.00;86.90;;;;;;5045237;28;20052;-76
2022/01/21 02:54:52;;;;;;;60.30;42.20;;;2.90;87.00;;;;;;5044684;28;20045;-78
2022/01/21 02:57:17;;;;;;;61.13;42.42;;;2.80;87.30;;;;;;5025107;28;20059;-77
2022/01/21 02:59:43;;;;;;;47.78;34.08;;;2.90;87.70;;;;;;5023571;28;20040;-76
2022/01/21 03:02:09;;;;;;;43.78;31.85;;;3.20;87.30;;;;;;5040945;28;20520;-75
2022/01/21 03:05:03;;;;;;;45.60;31.90;;;3.40;86.60;;;;;;5039693;28;20117;-76
2022/01/21 03:07:32;;;;;;;44.05;31.48;;;3.50;86.00;;;;;;5035178;28;20528;-75
2022/01/21 03:09:58;;;;;;;51.88;35.83;;;3.80;85.80;;;;;;5028863;28;20033;-75
2022/01/21 03:12:24;;;;;;;73.93;47.17;;;3.90;86.70;;;;;;5024184;28;20174;-76
2022/01/21 03:14:50;;;;;;;86.00;53.58;;;3.80;88.30;;;;;;5022436;28;20041;-76
2022/01/21 03:17:16;;;;;;;76.22;47.92;;;3.80;89.70;;;;;;5041465;28;20038;-77
2022/01/21 03:19:42;;;;;;;85.15;53.45;;;3.80;90.20;;;;;;5037450;28;20033;-76
2022/01/21 03:22:07;;;;;;;80.32;49.42;;;3.80;90.20;;;;;;5041528;28;20045;-76
2022/01/21 03:24:33;;;;;;;75.70;46.00;;;3.70;90.10;;;;;;5045858;28;20393;-77
2022/01/21 03:26:58;;;;;;;67.22;40.38;;;3.70;90.30;;;;;;5048646;28;20021;-77
2022/01/21 03:29:24;;;;;;;67.10;43.08;;;3.80;90.40;;;;;;5041422;28;20119;-77
2022/01/21 03:31:50;;;;;;;95.13;58.38;;;3.80;90.50;;;;;;5045402;28;20040;-77
2022/01/21 03:34:15;;;;;;;106.32;67.07;;;3.80;90.00;;;;;;5039576;28;20045;-77
2022/01/21 03:36:42;;;;;;;86.85;56.10;;;3.50;90.00;;;;;;5046305;28;20033;-78
2022/01/21 03:39:08;;;;;;;100.53;62.22;;;3.40;90.50;;;;;;5043698;28;20047;-77
2022/01/21 03:41:34;;;;;;;77.95;46.95;;;3.30;91.10;;;;;;5038836;28;20040;-78
2022/01/21 03:44:00;;;;;;;61.08;37.80;;;3.40;91.40;;;;;;5041986;28;20036;-76
2022/01/21 03:46:25;;;;;;;58.47;35.85;;;3.60;91.20;;;;;;5035458;28;20084;-77
2022/01/21 03:48:51;;;;;;;56.45;35.20;;;3.80;90.80;;;;;;5022022;28;20048;-77
2022/01/21 03:51:18;;;;;;;59.10;37.42;;;3.90;90.80;;;;;;5036530;28;20203;-76
2022/01/21 03:53:46;;;;;;;61.65;37.63;;;4.10;90.50;;;;;;5039797;28;20041;-77
2022/01/21 03:56:15;;;;;;;57.47;37.10;;;4.20;90.40;;;;;;5022662;28;20041;-77
2022/01/21 03:58:41;;;;;;;56.92;37.60;;;4.30;90.20;;;;;;5044738;28;20049;-77
2022/01/21 04:01:08;;;;;;;65.38;40.40;;;4.40;90.00;;;;;;5042878;28;20029;-77
2022/01/21 04:03:34;;;;;;;59.63;37.10;;;4.40;89.80;;;;;;5043948;28;21046;-77
2022/01/21 04:06:00;;;;;;;60.05;38.78;;;4.50;89.50;;;;;;5048466;28;20033;-78
2022/01/21 04:08:26;;;;;;;95.72;60.22;;;4.50;89.20;;;;;;5042408;28;20029;-77
2022/01/21 04:10:51;;;;;;;65.07;41.08;;;4.40;89.30;;;;;;5020147;28;20105;-77
2022/01/21 04:13:19;;;;;;;63.25;41.78;;;4.40;89.90;;;;;;5034335;28;20479;-76
2022/01/21 04:15:48;;;;;;;81.60;51.55;;;4.40;90.00;;;;;;5037301;28;20037;-77
2022/01/21 04:18:15;;;;;;;74.72;47.53;;;4.30;89.70;;;;;;5035122;28;20072;-77
2022/01/21 04:20:41;;;;;;;98.05;58.95;;;4.30;90.00;;;;;;5045478;28;20094;-77
2022/01/21 04:23:07;;;;;;;95.28;58.67;;;4.20;90.00;;;;;;5037942;28;20029;-78
2022/01/21 04:25:33;;;;;;;105.25;63.53;;;4.00;90.10;;;;;;5040838;28;20382;-77
2022/01/21 04:27:59;;;;;;;96.18;56.70;;;3.90;90.00;;;;;;5039758;28;20026;-77
2022/01/21 04:30:25;;;;;;;92.72;57.40;;;3.80;90.40;;;;;;5041383;28;20106;-77
2022/01/21 04:32:51;;;;;;;92.40;57.03;;;3.70;90.40;;;;;;5025121;28;20477;-77
2022/01/21 04:35:17;;;;;;;94.53;57.05;;;3.70;90.30;;;;;;5044220;28;20033;-78
2022/01/21 04:37:50;;;;;;;98.55;59.80;;;3.70;90.40;;;;;;5032346;28;20033;-78
2022/01/21 04:40:19;;;;;;;93.43;55.58;;;3.60;90.30;;;;;;5037879;28;20033;-78
2022/01/21 04:48:13;;;;;;;107.15;65.30;;;3.40;90.40;;;;;;5038977;28;20067;-78
2022/01/21 04:50:53;;;;;;;119.40;73.18;;;3.20;90.40;;;;;;5052000;28;20472;-77
2022/01/21 04:53:20;;;;;;;96.75;60.22;;;2.90;90.70;;;;;;5039688;28;20120;-77
2022/01/21 04:55:49;;;;;;;97.68;60.15;;;2.90;91.10;;;;;;5023927;28;20044;-77
2022/01/21 04:58:16;;;;;;;85.82;53.55;;;2.70;91.20;;;;;;5018987;28;20033;-77
2022/01/21 05:00:49;;;;;;;94.05;57.67;;;2.90;91.10;;;;;;5040886;28;20073;-78
2022/01/21 05:03:15;;;;;;;79.25;52.25;;;2.90;90.90;;;;;;5019626;28;20052;-77
2022/01/21 05:05:41;;;;;;;73.03;49.00;;;3.10;90.70;;;;;;5050179;28;20029;-77
2022/01/21 05:08:10;;;;;;;65.50;43.40;;;3.20;90.40;;;;;;5035470;28;20041;-77
2022/01/21 05:10:36;;;;;;;81.82;56.17;;;3.30;90.20;;;;;;5042046;28;20029;-77
2022/01/21 05:13:03;;;;;;;79.10;53.33;;;3.20;89.70;;;;;;5043929;28;20062;-77
2022/01/21 05:15:57;;;;;;;74.97;48.92;;;3.20;90.00;;;;;;5019818;28;20047;-77
2022/01/21 05:18:14;;;;;;;78.25;51.45;;;3.20;90.00;;;;;;5033847;28;20034;-77
2022/01/21 05:20:40;;;;;;;76.78;48.95;;;3.20;90.00;;;;;;5034427;28;20037;-77
2022/01/21 05:23:05;;;;;;;79.20;52.55;;;3.10;89.50;;;;;;5033582;28;20123;-78
2022/01/21 05:25:31;;;;;;;76.47;51.70;;;3.10;89.10;;;;;;5030044;28;20030;-78
2022/01/21 05:27:59;;;;;;;77.03;51.78;;;3.10;89.00;;;;;;5030035;28;20029;-76
2022/01/21 05:30:25;;;;;;;78.38;51.50;;;3.10;88.80;;;;;;5031997;28;20041;-78
2022/01/21 05:32:50;;;;;;;73.57;49.13;;;3.10;88.90;;;;;;5033349;28;20036;-79
2022/01/21 05:35:16;;;;;;;82.78;56.33;;;3.10;88.20;;;;;;5014482;28;20031;-77
2022/01/21 05:37:42;;;;;;;94.95;62.08;;;3.10;87.80;;;;;;5034517;28;20037;-77
2022/01/21 05:40:13;;;;;;;92.68;59.03;;;2.90;89.00;;;;;;5030445;28;20068;-77
2022/01/21 05:42:39;;;;;;;89.28;58.65;;;2.70;90.50;;;;;;5038584;28;20481;-77
2022/01/21 05:50:35;;;;;;;64.75;41.47;;;2.70;90.40;;;;;;3131249;23;20103;-93
2022/01/21 05:53:07;;;;;;;80.75;48.25;;;2.80;90.70;;;;;;5017812;28;20389;-94
2022/01/21 05:55:39;;;;;;;62.83;42.53;;;2.80;90.30;;;;;;5018592;28;20033;-92
2022/01/21 05:58:05;;;;;;;58.65;38.05;;;2.80;90.20;;;;;;5031410;28;20483;-96
2022/01/21 06:00:31;;;;;;;79.68;50.53;;;3.00;90.10;;;;;;5001064;28;20034;-96
2022/01/21 06:03:16;;;;;;;86.47;53.60;;;2.90;89.70;;;;;;5005193;28;20057;-96
2022/01/21 06:08:33;;;;;;;67.03;42.10;;;2.80;90.20;;;;;;5004608;28;20044;-95
2022/01/21 06:10:59;;;;;;;62.90;39.67;;;3.00;89.90;;;;;;5017113;28;20041;-95
2022/01/21 06:13:24;;;;;;;63.53;41.45;;;2.90;90.00;;;;;;4999245;28;20034;-96
2022/01/21 06:15:55;;;;;;;85.10;55.60;;;3.00;89.70;;;;;;4999703;28;20041;-96
2022/01/21 06:18:24;;;;;;;69.88;44.75;;;2.90;90.00;;;;;;4999324;28;20026;-94
2022/01/21 06:20:49;;;;;;;60.22;40.13;;;2.90;90.20;;;;;;4998607;28;20045;-96
2022/01/21 06:23:19;;;;;;;57.58;36.70;;;2.90;90.20;;;;;;5000093;28;20040;-96
2022/01/21 06:25:45;;;;;;;81.57;52.03;;;3.00;90.20;;;;;;5017313;28;20063;-94
2022/01/21 06:28:11;;;;;;;70.75;45.03;;;3.10;89.40;;;;;;5000337;28;20489;-95
2022/01/21 06:30:42;;;;;;;60.47;38.58;;;3.00;90.00;;;;;;5000030;28;20033;-95
2022/01/21 06:33:11;;;;;;;71.47;46.95;;;3.20;89.50;;;;;;4999982;28;20073;-95
2022/01/21 06:35:40;;;;;;;63.95;42.35;;;3.10;88.90;;;;;;4998908;28;20113;-95
2022/01/21 06:38:06;;;;;;;58.83;38.42;;;3.20;89.50;;;;;;4997833;28;20040;-94
2022/01/21 06:40:35;;;;;;;57.53;36.55;;;3.30;88.80;;;;;;5000482;28;20486;-94
2022/01/21 06:43:03;;;;;;;62.38;42.05;;;3.30;88.40;;;;;;5000690;28;20125;-94
2022/01/21 06:45:32;;;;;;;69.97;46.80;;;3.30;87.80;;;;;;5000824;28;20034;-96
2022/01/21 06:48:02;;;;;;;59.30;38.05;;;3.30;87.50;;;;;;5000101;28;20120;-95
2022/01/21 06:50:30;;;;;;;64.22;44.00;;;3.30;87.70;;;;;;5001219;28;20068;-95
2022/01/21 06:52:56;;;;;;;64.03;43.90;;;3.30;87.50;;;;;;5017413;28;20104;-95
2022/01/21 06:55:25;;;;;;;67.28;44.33;;;3.30;87.20;;;;;;5000489;28;20490;-95
2022/01/21 06:57:51;;;;;;;56.33;37.13;;;3.10;87.40;;;;;;5000367;28;20038;-96
2022/01/21 07:00:19;;;;;;;62.17;41.67;;;3.20;87.70;;;;;;4993006;28;20034;-94
2022/01/21 07:02:53;;;;;;;61.85;42.90;;;3.20;87.60;;;;;;4996550;28;20056;-95
2022/01/21 07:05:25;;;;;;;70.22;43.97;;;3.30;87.60;;;;;;4998376;28;20189;-96
2022/01/21 07:07:58;;;;;;;65.05;44.38;;;3.20;87.80;;;;;;5016789;28;20026;-95
2022/01/21 07:10:30;;;;;;;55.05;34.75;;;3.20;87.90;;;;;;4999638;28;20033;-95
2022/01/21 07:12:57;;;;;;;53.35;35.72;;;3.40;87.90;;;;;;4999570;28;20030;-95
2022/01/21 07:15:24;;;;;;;60.60;41.17;;;3.40;87.40;;;;;;4995515;28;20034;-95
2022/01/21 07:17:52;;;;;;;67.75;42.35;;;3.50;86.90;;;;;;4999066;28;20548;-95
2022/01/21 07:20:43;;;;;;;60.30;41.08;;;3.50;86.60;;;;;;4999068;28;20038;-96
2022/01/21 07:23:09;;;;;;;60.20;37.47;;;3.60;86.30;;;;;;4995310;28;20132;-95
2022/01/21 07:25:36;;;;;;;70.28;45.10;;;3.50;86.40;;;;;;4999059;28;20065;-95
2022/01/21 07:28:05;;;;;;;62.80;41.25;;;3.40;86.40;;;;;;4999946;28;20038;-96
2022/01/21 07:30:37;;;;;;;67.32;46.47;;;3.40;86.60;;;;;;4997609;28;20213;-95
2022/01/21 07:33:03;;;;;;;64.65;45.03;;;3.20;87.20;;;;;;4998913;28;20029;-95
2022/01/21 07:35:29;;;;;;;71.60;48.47;;;3.10;87.60;;;;;;5002293;28;20160;-95
2022/01/21 07:37:55;;;;;;;61.80;42.63;;;3.10;87.00;;;;;;4998283;28;20038;-93
2022/01/21 07:40:20;;;;;;;83.57;47.92;;;3.10;87.30;;;;;;4998034;28;20128;-93
2022/01/21 07:42:46;;;;;;;57.13;38.40;;;3.20;87.30;;;;;;4996811;28;20045;-94
2022/01/21 07:45:12;;;;;;;54.75;38.60;;;3.30;87.20;;;;;;4997735;28;20034;-95
2022/01/21 07:47:44;;;;;;;76.78;49.90;;;3.40;86.90;;;;;;4999030;28;20060;-94
2022/01/21 07:50:11;;;;;;;65.15;45.17;;;3.30;86.90;;;;;;4995058;28;20054;-94
2022/01/21 07:52:39;;;;;;;68.50;45.33;;;3.30;87.30;;;;;;4990252;28;20034;-94
2022/01/21 07:55:11;;;;;;;70.07;45.88;;;3.30;87.40;;;;;;4990622;28;20042;-95
2022/01/21 07:57:38;;;;;;;65.40;43.47;;;3.40;87.70;;;;;;4990250;28;20014;-95
2022/01/21 08:00:08;;;;;;;56.60;36.75;;;3.50;87.30;;;;;;4996833;28;20034;-93
2022/01/21 08:02:34;;;;;;;59.95;40.92;;;3.60;87.20;;;;;;4996927;28;20049;-95
2022/01/21 08:05:02;;;;;;;66.15;43.13;;;3.60;86.70;;;;;;4997435;28;20030;-95
2022/01/21 08:07:28;;;;;;;60.13;41.35;;;3.70;86.40;;;;;;4997334;28;20038;-96
2022/01/21 08:09:54;;;;;;;65.32;42.90;;;3.70;86.60;;;;;;4993960;28;20101;-95
2022/01/21 08:12:20;;;;;;;57.78;38.75;;;3.80;86.80;;;;;;4981235;28;20096;-96
2022/01/21 08:14:49;;;;;;;60.40;40.80;;;3.70;86.70;;;;;;4982970;28;20461;-96
2022/01/21 08:17:17;;;;;;;71.35;47.72;;;3.70;86.80;;;;;;4987141;28;20068;-96
2022/01/21 08:19:43;;;;;;;144.63;99.53;;;4.00;86.70;;;;;;4991450;28;20165;-96
2022/01/21 08:22:09;;;;;;;65.05;41.92;;;4.00;85.90;;;;;;4991817;28;20069;-95
2022/01/21 08:25:10;;;;;;;50.28;34.70;;;4.10;85.40;;;;;;4993834;28;20514;-93
2022/01/21 08:27:36;;;;;;;49.92;34.97;;;4.10;85.70;;;;;;4986728;23;20061;-88
2022/01/21 08:30:04;;;;;;;43.80;29.63;;;4.20;85.50;;;;;;5031813;28;20037;-89
2022/01/21 08:32:30;;;;;;;41.90;28.30;;;4.20;84.80;;;;;;5037361;28;20108;-88
2022/01/21 08:34:56;;;;;;;50.13;32.08;;;4.30;84.50;;;;;;5020231;28;20049;-87
2022/01/21 08:37:22;;;;;;;48.40;33.10;;;4.50;83.90;;;;;;5037910;28;20453;-88
2022/01/21 08:39:48;;;;;;;41.53;28.02;;;4.50;83.20;;;;;;5027370;28;20045;-89
2022/01/21 08:42:14;;;;;;;50.50;34.30;;;4.60;83.60;;;;;;5029314;28;20765;-88
2022/01/21 08:44:40;;;;;;;36.17;25.48;;;4.60;82.90;;;;;;5033177;28;20038;-89
2022/01/21 08:47:06;;;;;;;43.05;24.20;;;4.70;83.20;;;;;;5022565;28;20052;-89
2022/01/21 08:49:32;;;;;;;29.15;21.33;;;4.80;83.10;;;;;;5033153;28;20485;-88
2022/01/21 08:51:59;;;;;;;31.98;22.20;;;5.00;82.70;;;;;;5034863;28;20432;-88
2022/01/21 08:54:26;;;;;;;28.08;19.55;;;5.20;82.30;;;;;;5021289;28;20042;-89
2022/01/21 08:56:54;;;;;;;25.77;19.13;;;5.40;81.70;;;;;;5038422;28;20036;-90
2022/01/21 08:59:20;;;;;;;39.67;25.65;;;5.70;81.20;;;;;;5034792;28;20503;-90
2022/01/21 09:01:48;;;;;;;30.23;21.58;;;5.80;79.30;;;;;;5022850;28;20386;-90
2022/01/21 09:04:15;;;;;;;29.10;21.67;;;6.00;79.20;;;;;;5021307;28;20167;-90
2022/01/21 09:06:41;;;;;;;25.45;19.33;;;6.20;78.90;;;;;;5032117;28;20030;-91
2022/01/21 09:09:07;;;;;;;34.70;23.60;;;6.30;78.60;;;;;;5023886;28;20031;-91
2022/01/21 09:11:33;;;;;;;27.23;20.15;;;6.40;76.40;;;;;;5032172;28;20147;-90
2022/01/21 09:14:00;;;;;;;27.52;19.70;;;6.50;77.50;;;;;;5037540;28;20034;-90
2022/01/21 09:16:26;;;;;;;23.25;16.80;;;6.60;76.40;;;;;;5031090;28;20025;-89
2022/01/21 09:18:55;;;;;;;21.65;15.80;;;6.70;76.80;;;;;;5037730;28;21765;-88
2022/01/21 09:21:24;;;;;;;25.47;19.17;;;6.90;77.00;;;;;;5025267;28;20604;-89
2022/01/21 09:23:50;;;;;;;22.50;16.08;;;6.90;75.90;;;;;;5044294;28;20044;-92
2022/01/21 09:26:21;;;;;;;21.58;15.80;;;7.00;75.60;;;;;;5029656;28;20036;-92
2022/01/21 09:28:48;;;;;;;22.35;15.18;;;7.10;75.20;;;;;;5044634;28;20103;-84
2022/01/21 09:31:15;;;;;;;21.38;14.10;;;7.20;75.40;;;;;;5046380;28;20128;-85
2022/01/21 09:33:41;;;;;;;19.10;14.57;;;7.40;75.40;;;;;;5044589;28;20064;-85
2022/01/21 09:36:09;;;;;;;16.30;12.32;;;7.60;74.10;;;;;;5032147;28;20531;-85
2022/01/21 09:38:35;;;;;;;14.68;11.27;;;7.70;73.70;;;;;;5046440;28;20427;-84
2022/01/21 09:41:03;;;;;;;15.02;10.52;;;7.90;74.10;;;;;;5047656;28;20041;-85
2022/01/21 09:43:28;;;;;;;12.65;9.27;;;8.00;73.90;;;;;;5043995;28;20029;-92
2022/01/21 09:45:55;;;;;;;14.27;11.07;;;8.10;73.30;;;;;;5064331;28;20107;-93
2022/01/21 09:48:25;;;;;;;15.82;11.13;;;8.20;71.60;;;;;;5047609;28;20033;-90
2022/01/21 09:50:53;;;;;;;12.52;10.18;;;8.30;72.20;;;;;;5050333;28;20033;-90
2022/01/21 09:53:26;;;;;;;11.70;9.98;;;8.50;72.20;;;;;;5048734;28;20083;-90
2022/01/21 09:55:53;;;;;;;13.32;9.85;;;8.60;72.10;;;;;;5052597;28;20079;-90
2022/01/21 09:58:19;;;;;;;10.90;9.35;;;8.70;70.20;;;;;;5043909;28;20036;-90
2022/01/21 10:00:45;;;;;;;12.65;10.32;;;8.80;70.90;;;;;;5046912;28;20041;-89
2022/01/21 10:03:11;;;;;;;12.90;10.27;;;9.00;71.00;;;;;;5044165;28;20044;-91
2022/01/21 10:05:38;;;;;;;14.82;10.43;;;9.10;70.70;;;;;;5057423;28;20053;-93
2022/01/21 10:08:05;;;;;;;10.50;8.85;;;9.20;68.70;;;;;;5022843;28;20037;-91
2022/01/21 10:10:31;;;;;;;13.50;9.82;;;9.40;70.40;;;;;;5031216;28;20088;-91
2022/01/21 10:13:02;;;;;;;10.10;8.45;;;9.50;68.40;;;;;;5026166;28;20038;-90
2022/01/21 10:15:29;;;;;;;12.55;8.88;;;9.50;66.90;;;;;;5036283;28;20569;-90
2022/01/21 10:18:05;;;;;;;11.38;8.00;;;9.60;68.30;;;;;;5036853;28;20076;-90
2022/01/21 10:20:30;;;;;;;13.50;9.27;;;9.70;67.90;;;;;;5055594;28;20082;-90
2022/01/21 10:23:08;;;;;;;10.10;8.18;;;9.80;66.30;;;;;;5052839;28;20108;-84
2022/01/21 10:25:36;;;;;;;9.82;7.45;;;9.90;67.20;;;;;;5029195;28;20052;-84
2022/01/21 10:28:11;;;;;;;14.13;8.70;;;10.00;67.50;;;;;;5044950;28;20047;-84
2022/01/21 10:30:38;;;;;;;13.43;8.85;;;10.10;64.40;;;;;;5048073;28;20166;-86
2022/01/21 10:33:26;;;;;;;10.82;7.82;;;10.10;64.20;;;;;;5033575;28;20049;-85
2022/01/21 10:36:12;;;;;;;8.10;6.75;;;10.30;65.00;;;;;;5030109;28;20041;-86
2022/01/21 10:38:46;;;;;;;10.63;7.18;;;10.50;66.00;;;;;;5029217;28;20063;-86
2022/01/21 10:41:15;;;;;;;7.53;6.53;;;10.60;65.20;;;;;;5029706;28;20040;-87
2022/01/21 10:43:42;;;;;;;6.90;5.30;;;10.70;62.70;;;;;;5033527;28;20045;-90
2022/01/21 10:46:12;;;;;;;9.95;6.32;;;11.00;64.50;;;;;;5054448;28;20017;-88
2022/01/21 10:49:02;;;;;;;10.77;5.78;;;11.10;60.40;;;;;;5049769;28;20029;-87
2022/01/21 10:51:32;;;;;;;9.73;5.27;;;11.30;60.20;;;;;;5047563;28;20041;-88
2022/01/21 10:54:11;;;;;;;7.22;4.95;;;11.50;60.30;;;;;;5051075;28;20033;-85
2022/01/21 10:56:36;;;;;;;6.93;5.35;;;11.70;59.20;;;;;;5034157;28;20500;-83
2022/01/21 10:59:02;;;;;;;6.07;4.95;;;11.80;56.30;;;;;;5036427;28;20029;-86
2022/01/21 11:01:29;;;;;;;6.85;5.50;;;11.80;57.50;;;;;;5042907;28;20037;-86
2022/01/21 11:03:56;;;;;;;8.88;5.07;;;11.80;54.80;;;;;;5034460;28;20036;-88
2022/01/21 11:06:25;;;;;;;7.15;4.65;;;11.90;56.10;;;;;;5054207;28;20072;-88
2022/01/21 11:09:10;;;;;;;9.45;5.22;;;12.00;55.50;;;;;;5051367;28;20080;-87
2022/01/21 11:11:36;;;;;;;7.90;5.65;;;12.20;55.30;;;;;;5031066;28;20044;-87
2022/01/21 11:14:13;;;;;;;6.25;5.10;;;12.40;57.10;;;;;;5052807;28;20041;-88
2022/01/21 11:16:43;;;;;;;7.30;4.40;;;12.50;58.30;;;;;;5030708;28;20037;-91
2022/01/21 11:19:11;;;;;;;6.13;4.10;;;12.70;58.90;;;;;;5035220;28;20037;-89
2022/01/21 11:21:46;;;;;;;4.85;4.00;;;13.00;58.00;;;;;;5031345;28;20042;-88
2022/01/21 11:24:14;;;;;;;5.57;4.05;;;13.00;55.50;;;;;;5052334;28;20107;-89
2022/01/21 11:26:40;;;;;;;4.85;3.58;;;13.10;53.70;;;;;;5054425;28;20033;-90
2022/01/21 11:29:08;;;;;;;3.53;3.20;;;13.20;54.60;;;;;;5055061;28;20044;-89
2022/01/21 11:31:33;;;;;;;7.35;3.90;;;13.40;54.20;;;;;;5047190;28;20044;-89
2022/01/21 11:34:00;;;;;;;4.18;3.40;;;13.50;52.90;;;;;;5054442;28;20029;-87
2022/01/21 11:36:26;;;;;;;5.85;3.00;;;13.50;50.50;;;;;;5054233;28;20389;-89
2022/01/21 11:38:55;;;;;;;4.65;3.00;;;13.60;51.20;;;;;;5055115;28;20029;-89
2022/01/21 11:41:25;;;;;;;7.95;3.60;;;13.80;50.50;;;;;;5036854;28;20041;-89
2022/01/21 11:43:55;;;;;;;5.20;3.50;;;13.80;45.70;;;;;;5042299;28;20033;-89
2022/01/21 11:49:01;;;;;;;7.43;4.05;;;13.90;42.70;;;;;;5054386;28;20029;-89
2022/01/21 11:51:33;;;;;;;4.88;2.90;;;14.10;45.20;;;;;;5037007;28;20039;-88
2022/01/21 11:54:00;;;;;;;4.53;2.50;;;14.30;46.10;;;;;;5036157;28;20037;-91
2022/01/21 11:56:46;;;;;;;5.10;2.55;;;14.50;46.50;;;;;;5039469;28;20484;-90
2022/01/21 11:59:16;;;;;;;3.20;2.58;;;15.00;46.80;;;;;;5059814;28;20036;-89
2022/01/21 12:01:47;;;;;;;3.53;2.60;;;15.60;42.70;;;;;;5041803;28;20124;-90
2022/01/21 12:04:46;;;;;;;5.32;2.60;;;16.20;43.20;;;;;;5050084;28;20738;-89
2022/01/21 12:07:45;;;;;;;3.58;2.25;;;16.80;38.30;;;;;;5059971;28;20033;-90
2022/01/21 12:10:12;;;;;;;4.97;2.55;;;17.60;37.90;;;;;;5037773;28;20370;-90
2022/01/21 12:18:08;;;;;;;1.75;1.50;;;19.10;32.60;;;;;;5054011;28;20072;-92
2022/01/21 12:20:35;;;;;;;2.50;1.25;;;19.30;32.40;;;;;;5052944;28;20481;-89
2022/01/21 12:23:18;;;;;;;2.15;1.30;;;19.50;30.10;;;;;;5058453;28;20033;-89
2022/01/21 12:26:08;;;;;;;2.30;1.65;;;19.50;29.00;;;;;;5040950;28;20033;-90
2022/01/21 12:28:34;;;;;;;2.50;1.67;;;19.40;29.00;;;;;;5038067;28;20489;-89
2022/01/21 12:31:00;;;;;;;3.33;1.65;;;19.30;29.10;;;;;;5038560;28;20076;-90
2022/01/21 12:33:51;;;;;;;2.78;1.75;;;19.40;28.90;;;;;;5050648;28;20065;-90
2022/01/21 12:36:31;;;;;;;2.15;1.30;;;19.60;27.40;;;;;;5055853;28;20053;-89
2022/01/21 12:41:43;;;;;;;3.80;1.38;;;19.60;29.20;;;;;;5051571;28;20040;-90
2022/01/21 12:44:10;;;;;;;2.17;1.50;;;19.80;27.80;;;;;;5037788;28;20064;-90
2022/01/21 12:46:39;;;;;;;1.33;1.10;;;19.90;29.50;;;;;;5055541;28;20025;-90
2022/01/21 12:49:30;;;;;;;2.60;1.13;;;19.80;28.20;;;;;;5054591;28;20053;-88
2022/01/21 12:57:27;;;;;;;2.47;1.40;;;19.60;27.60;;;;;;5050824;28;20040;-88
2022/01/21 12:59:58;;;;;;;2.63;1.33;;;19.40;28.20;;;;;;5057386;28;20100;-88
2022/01/21 13:02:27;;;;;;;1.58;1.20;;;19.00;26.50;;;;;;5036658;28;20044;-88
2022/01/21 13:05:12;;;;;;;2.97;1.63;;;18.70;28.60;;;;;;5037110;28;20480;-87
2022/01/21 13:08:00;;;;;;;2.65;1.30;;;18.70;28.10;;;;;;5052544;28;20136;-87
2022/01/21 13:10:28;;;;;;;2.65;1.40;;;18.80;28.10;;;;;;5039720;28;20053;-86
2022/01/21 13:15:37;;;;;;;3.42;1.33;;;18.50;28.30;;;;;;5055323;28;20094;-87
2022/01/21 13:18:14;;;;;;;2.13;1.30;;;18.60;29.30;;;;;;5053259;28;20060;-89
2022/01/21 13:20:42;;;;;;;1.63;1.25;;;18.80;27.80;;;;;;5037979;28;20504;-90
2022/01/21 13:23:09;;;;;;;3.08;1.33;;;18.70;28.90;;;;;;5056685;28;20086;-90
2022/01/21 13:25:48;;;;;;;1.98;1.02;;;18.70;29.10;;;;;;5027299;28;20036;-89
2022/01/21 13:28:14;;;;;;;3.35;1.35;;;18.50;28.00;;;;;;5054926;28;20085;-89
2022/01/21 13:30:40;;;;;;;6.75;1.92;;;18.20;28.30;;;;;;5056233;28;20056;-89
2022/01/21 13:33:08;;;;;;;1.63;1.17;;;17.80;28.60;;;;;;5055685;28;20456;-89
2022/01/21 13:35:35;;;;;;;1.63;1.30;;;17.40;28.60;;;;;;5032337;28;20028;-90
2022/01/21 13:38:06;;;;;;;2.03;1.25;;;17.10;29.40;;;;;;5048784;28;20071;-88
2022/01/21 13:40:37;;;;;;;3.20;1.67;;;16.80;30.00;;;;;;5043895;28;20029;-89
2022/01/21 13:43:24;;;;;;;2.83;1.08;;;16.40;30.70;;;;;;5053770;28;20035;-90
2022/01/21 13:46:01;;;;;;;2.20;1.25;;;15.80;30.90;;;;;;5056664;28;20520;-89
2022/01/21 13:48:29;;;;;;;1.77;1.15;;;15.50;30.20;;;;;;5056391;28;20481;-89
2022/01/21 13:50:57;;;;;;;1.38;1.02;;;15.20;30.00;;;;;;5067780;28;20064;-88
2022/01/21 13:53:23;;;;;;;1.58;0.95;;;15.00;31.30;;;;;;5056662;28;20032;-89
2022/01/21 13:56:01;;;;;;;1.25;1.10;;;14.70;31.50;;;;;;5049898;28;20485;-82
2022/01/21 13:58:32;;;;;;;4.72;1.20;;;14.40;31.80;;;;;;5050462;28;20043;-81
2022/01/21 14:01:00;;;;;;;1.42;0.90;;;14.20;29.30;;;;;;5055133;28;20037;-81